sensor_id;sensor_type;location;lat;lon;timestamp;pressure;altitude;pressure_sealevel;temperature;humidity
56944;BME280;42848;42.524;12.052;2023-01-25T00:02:00;97307.09;;;4.72;100.00
56944;BME280;42848;42.524;12.052;2023-01-25T00:04:26;97307.09;;;4.67;100.00
56944;BME280;42848;42.524;12.052;2023-01-25T00:06:52;97295.78;;;4.65;100.00
56944;BME280;42848;42.524;12.052;2023-01-25T00:09:19;97306.00;;;4.58;100.00
56944;BME280;42848;42.524;12.052;2023-01-25T00:11:45;97291.19;;;4.55;100.00
56944;BME280;42848;42.524;12.052;2023-01-25T00:14:11;97307.59;;;4.54;100.00
56944;BME280;42848;42.524;12.052;2023-01-25T00:16:38;97305.44;;;4.51;100.00
56944;BME280;42848;42.524;12.052;2023-01-25T00:19:04;97298.19;;;4.56;100.00
56944;BME280;42848;42.524;12.052;2023-01-25T00:21:30;97280.72;;;4.54;100.00
56944;BME280;42848;42.524;12.052;2023-01-25T00:23:56;97289.31;;;4.51;100.00
56944;BME280;42848;42.524;12.052;2023-01-25T00:26:22;97280.19;;;4.52;100.00
56944;BME280;42848;42.524;12.052;2023-01-25T00:28:49;97288.78;;;4.54;100.00
56944;BME280;42848;42.524;12.052;2023-01-25T00:36:45;97283.41;;;4.54;100.00
56944;BME280;42848;42.524;12.052;2023-01-25T00:39:12;97285.28;;;4.53;100.00
56944;BME280;42848;42.524;12.052;2023-01-25T00:41:38;97296.31;;;4.52;100.00
56944;BME280;42848;42.524;12.052;2023-01-25T00:44:05;97289.31;;;4.51;100.00
56944;BME280;42848;42.524;12.052;2023-01-25T00:46:30;97293.59;;;4.47;100.00
56944;BME280;42848;42.524;12.052;2023-01-25T00:48:56;97285.81;;;4.50;100.00
56944;BME280;42848;42.524;12.052;2023-01-25T00:51:23;97280.16;;;4.42;100.00
56944;BME280;42848;42.524;12.052;2023-01-25T00:53:49;97279.06;;;4.38;100.00
56944;BME280;42848;42.524;12.052;2023-01-25T00:56:15;97285.00;;;4.45;100.00
56944;BME280;42848;42.524;12.052;2023-01-25T00:58:41;97280.16;;;4.42;100.00
56944;BME280;42848;42.524;12.052;2023-01-25T01:01:06;97290.91;;;4.42;100.00
56944;BME280;42848;42.524;12.052;2023-01-25T01:03:32;97285.25;;;4.38;100.00
56944;BME280;42848;42.524;12.052;2023-01-25T01:06:03;97275.59;;;4.32;100.00
56944;BME280;42848;42.524;12.052;2023-01-25T01:08:32;97280.66;;;4.28;100.00
56944;BME280;42848;42.524;12.052;2023-01-25T01:11:00;97274.22;;;4.29;100.00
56944;BME280;42848;42.524;12.052;2023-01-25T01:13:27;97285.50;;;4.21;100.00
56944;BME280;42848;42.524;12.052;2023-01-25T01:15:53;97293.03;;;4.29;100.00
56944;BME280;42848;42.524;12.052;2023-01-25T01:18:19;97284.69;;;4.21;100.00
56944;BME280;42848;42.524;12.052;2023-01-25T01:20:49;97273.13;;;4.15;100.00
56944;BME280;42848;42.524;12.052;2023-01-25T01:23:19;97273.09;;;4.10;100.00
56944;BME280;42848;42.524;12.052;2023-01-25T01:25:45;97259.66;;;4.10;100.00
56944;BME280;42848;42.524;12.052;2023-01-25T01:28:11;97261.84;;;4.13;100.00
56944;BME280;42848;42.524;12.052;2023-01-25T01:30:38;97262.38;;;4.15;100.00
56944;BME280;42848;42.524;12.052;2023-01-25T01:33:04;97265.03;;;4.10;100.00
56944;BME280;42848;42.524;12.052;2023-01-25T01:35:30;97258.59;;;4.11;100.00
56944;BME280;42848;42.524;12.052;2023-01-25T01:37:57;97257.53;;;4.17;100.00
56944;BME280;42848;42.524;12.052;2023-01-25T01:40:23;97252.41;;;4.11;100.00
56944;BME280;42848;42.524;12.052;2023-01-25T01:43:01;97249.22;;;4.14;100.00
56944;BME280;42848;42.524;12.052;2023-01-25T01:46:03;97249.47;;;4.17;100.00
56944;BME280;42848;42.524;12.052;2023-01-25T01:48:53;97272.59;;;4.18;100.00
56944;BME280;42848;42.524;12.052;2023-01-25T01:57:06;97231.72;;;4.11;100.00
56944;BME280;42848;42.524;12.052;2023-01-25T01:59:45;97222.06;;;4.05;100.00
56944;BME280;42848;42.524;12.052;2023-01-25T02:02:13;97220.44;;;4.09;100.00
56944;BME280;42848;42.524;12.052;2023-01-25T02:04:39;97225.53;;;4.11;100.00
56944;BME280;42848;42.524;12.052;2023-01-25T02:07:33;97219.66;;;4.14;100.00
56944;BME280;42848;42.524;12.052;2023-01-25T02:10:00;97214.25;;;4.09;100.00
56944;BME280;42848;42.524;12.052;2023-01-25T02:12:26;97224.22;;;4.13;100.00
56944;BME280;42848;42.524;12.052;2023-01-25T02:14:53;97221.81;;;4.12;100.00
56944;BME280;42848;42.524;12.052;2023-01-25T02:17:27;97215.59;;;4.11;100.00
56944;BME280;42848;42.524;12.052;2023-01-25T02:22:58;97206.19;;;4.09;100.00
56944;BME280;42848;42.524;12.052;2023-01-25T02:25:20;97200.81;;;4.09;100.00
56944;BME280;42848;42.524;12.052;2023-01-25T02:27:53;97194.09;;;4.11;100.00
56944;BME280;42848;42.524;12.052;2023-01-25T02:30:20;97193.34;;;4.21;100.00
56944;BME280;42848;42.524;12.052;2023-01-25T02:32:47;97190.91;;;4.14;100.00
56944;BME280;42848;42.524;12.052;2023-01-25T02:35:38;97188.75;;;4.16;100.00
56944;BME280;42848;42.524;12.052;2023-01-25T02:38:05;97182.56;;;4.11;100.00
56944;BME280;42848;42.524;12.052;2023-01-25T02:40:35;97178.56;;;4.13;100.00
56944;BME280;42848;42.524;12.052;2023-01-25T02:43:03;97166.72;;;4.04;100.00
56944;BME280;42848;42.524;12.052;2023-01-25T02:45:29;97159.19;;;4.11;100.00
56944;BME280;42848;42.524;12.052;2023-01-25T02:47:55;97162.72;;;4.12;100.00
56944;BME280;42848;42.524;12.052;2023-01-25T02:50:21;97151.16;;;4.16;100.00
56944;BME280;42848;42.524;12.052;2023-01-25T02:52:47;97147.13;;;4.14;100.00
56944;BME280;42848;42.524;12.052;2023-01-25T02:55:12;97144.41;;;4.09;100.00
56944;BME280;42848;42.524;12.052;2023-01-25T02:57:38;97146.84;;;4.15;100.00
56944;BME280;42848;42.524;12.052;2023-01-25T03:00:04;97133.94;;;4.07;100.00
56944;BME280;42848;42.524;12.052;2023-01-25T03:02:30;97142.53;;;4.09;100.00
56944;BME280;42848;42.524;12.052;2023-01-25T03:04:56;97146.31;;;4.03;100.00
56944;BME280;42848;42.524;12.052;2023-01-25T03:07:22;97142.03;;;4.12;100.00
56944;BME280;42848;42.524;12.052;2023-01-25T03:09:47;97147.09;;;4.09;100.00
56944;BME280;42848;42.524;12.052;2023-01-25T03:12:13;97142.81;;;4.08;100.00
56944;BME280;42848;42.524;12.052;2023-01-25T03:14:39;97142.53;;;4.09;100.00
56944;BME280;42848;42.524;12.052;2023-01-25T03:17:04;97143.63;;;4.08;100.00
56944;BME280;42848;42.524;12.052;2023-01-25T03:19:30;97140.66;;;4.05;100.00
56944;BME280;42848;42.524;12.052;2023-01-25T03:21:56;97153.28;;;4.09;100.00
56944;BME280;42848;42.524;12.052;2023-01-25T03:24:23;97129.13;;;4.04;100.00
56944;BME280;42848;42.524;12.052;2023-01-25T03:26:49;97138.25;;;4.03;100.00
56944;BME280;42848;42.524;12.052;2023-01-25T03:29:33;97133.38;;;4.00;100.00
56944;BME280;42848;42.524;12.052;2023-01-25T03:31:58;97135.28;;;3.99;100.00
56944;BME280;42848;42.524;12.052;2023-01-25T03:34:24;97136.09;;;3.95;100.00
56944;BME280;42848;42.524;12.052;2023-01-25T03:36:50;97138.78;;;3.95;100.00
56944;BME280;42848;42.524;12.052;2023-01-25T03:39:16;97135.53;;;3.88;100.00
56944;BME280;42848;42.524;12.052;2023-01-25T03:41:41;97135.53;;;3.88;100.00
56944;BME280;42848;42.524;12.052;2023-01-25T03:44:08;97130.16;;;3.83;100.00
56944;BME280;42848;42.524;12.052;2023-01-25T03:46:37;97129.63;;;3.81;100.00
56944;BME280;42848;42.524;12.052;2023-01-25T03:49:02;97136.03;;;3.75;100.00
56944;BME280;42848;42.524;12.052;2023-01-25T03:51:28;97118.84;;;3.70;100.00
56944;BME280;42848;42.524;12.052;2023-01-25T03:53:54;97120.47;;;3.71;100.00
56944;BME280;42848;42.524;12.052;2023-01-25T03:56:19;97128.78;;;3.70;100.00
56944;BME280;42848;42.524;12.052;2023-01-25T03:58:46;97129.59;;;3.70;100.00
56944;BME280;42848;42.524;12.052;2023-01-25T04:01:11;97116.44;;;3.69;100.00
56944;BME280;42848;42.524;12.052;2023-01-25T04:03:37;97104.91;;;3.68;100.00
56944;BME280;42848;42.524;12.052;2023-01-25T04:06:04;97111.31;;;3.62;100.00
56944;BME280;42848;42.524;12.052;2023-01-25T04:08:30;97113.47;;;3.65;100.00
56944;BME280;42848;42.524;12.052;2023-01-25T04:11:00;97114.28;;;3.71;100.00
56944;BME280;42848;42.524;12.052;2023-01-25T04:13:26;97121.53;;;3.70;100.00
56944;BME280;42848;42.524;12.052;2023-01-25T04:15:53;97116.19;;;3.76;100.00
56944;BME280;42848;42.524;12.052;2023-01-25T04:18:19;97112.44;;;3.77;100.00
56944;BME280;42848;42.524;12.052;2023-01-25T04:20:45;97119.13;;;3.74;100.00
56944;BME280;42848;42.524;12.052;2023-01-25T04:23:16;97121.56;;;3.76;100.00
56944;BME280;42848;42.524;12.052;2023-01-25T04:25:41;97116.47;;;3.79;100.00
56944;BME280;42848;42.524;12.052;2023-01-25T04:28:07;97110.28;;;3.84;100.00
56944;BME280;42848;42.524;12.052;2023-01-25T04:30:33;97124.25;;;3.81;100.00
56944;BME280;42848;42.524;12.052;2023-01-25T04:33:03;97124.78;;;3.88;100.00
56944;BME280;42848;42.524;12.052;2023-01-25T04:35:29;97122.91;;;3.83;100.00
56944;BME280;42848;42.524;12.052;2023-01-25T04:37:55;97121.03;;;3.89;100.00
56944;BME280;42848;42.524;12.052;2023-01-25T04:40:21;97116.75;;;3.88;100.00
56944;BME280;42848;42.524;12.052;2023-01-25T04:42:47;97128.53;;;3.92;100.00
56944;BME280;42848;42.524;12.052;2023-01-25T04:45:13;97117.81;;;3.87;100.00
56944;BME280;42848;42.524;12.052;2023-01-25T04:47:39;97120.50;;;3.92;100.00
56944;BME280;42848;42.524;12.052;2023-01-25T04:50:05;97117.56;;;3.93;100.00
56944;BME280;42848;42.524;12.052;2023-01-25T04:52:30;97106.53;;;3.95;100.00
56944;BME280;42848;42.524;12.052;2023-01-25T04:54:56;97114.59;;;3.95;100.00
56944;BME280;42848;42.524;12.052;2023-01-25T04:57:22;97115.13;;;3.97;100.00
56944;BME280;42848;42.524;12.052;2023-01-25T04:59:47;97126.41;;;3.99;100.00
56944;BME280;42848;42.524;12.052;2023-01-25T05:02:13;97119.16;;;3.99;100.00
56944;BME280;42848;42.524;12.052;2023-01-25T05:04:39;97119.97;;;3.95;100.00
56944;BME280;42848;42.524;12.052;2023-01-25T05:07:04;97124.28;;;3.96;100.00
56944;BME280;42848;42.524;12.052;2023-01-25T05:09:30;97125.31;;;3.90;100.00
56944;BME280;42848;42.524;12.052;2023-01-25T05:11:56;97125.84;;;3.92;100.00
56944;BME280;42848;42.524;12.052;2023-01-25T05:14:22;97119.97;;;3.95;100.00
56944;BME280;42848;42.524;12.052;2023-01-25T05:16:47;97117.81;;;3.87;100.00
56944;BME280;42848;42.524;12.052;2023-01-25T05:19:13;97126.41;;;3.89;100.00
56944;BME280;42848;42.524;12.052;2023-01-25T05:21:39;97124.00;;;3.87;100.00
56944;BME280;42848;42.524;12.052;2023-01-25T05:24:26;97123.72;;;3.89;100.00
56944;BME280;42848;42.524;12.052;2023-01-25T05:26:52;97121.31;;;3.87;100.00
56944;BME280;42848;42.524;12.052;2023-01-25T05:29:36;97119.44;;;3.88;100.00
56944;BME280;42848;42.524;12.052;2023-01-25T05:32:03;97119.69;;;3.81;100.00
56944;BME280;42848;42.524;12.052;2023-01-25T05:34:29;97114.03;;;3.78;100.00
56944;BME280;42848;42.524;12.052;2023-01-25T05:36:56;97113.50;;;3.70;100.00
56944;BME280;42848;42.524;12.052;2023-01-25T05:39:22;97114.03;;;3.67;100.00
56944;BME280;42848;42.524;12.052;2023-01-25T05:41:48;97109.72;;;3.71;100.00
56944;BME280;42848;42.524;12.052;2023-01-25T05:44:13;97116.19;;;3.70;100.00
56944;BME280;42848;42.524;12.052;2023-01-25T05:46:39;97104.34;;;3.71;100.00
56944;BME280;42848;42.524;12.052;2023-01-25T05:49:05;97104.91;;;3.79;100.00
56944;BME280;42848;42.524;12.052;2023-01-25T05:51:31;97094.97;;;3.79;100.00
56944;BME280;42848;42.524;12.052;2023-01-25T05:53:57;97086.66;;;3.81;100.00
56944;BME280;42848;42.524;12.052;2023-01-25T05:56:23;97089.34;;;3.76;100.00
56944;BME280;42848;42.524;12.052;2023-01-25T05:58:53;97099.53;;;3.74;100.00
56944;BME280;42848;42.524;12.052;2023-01-25T06:01:18;97096.31;;;3.77;100.00
56944;BME280;42848;42.524;12.052;2023-01-25T06:03:45;97096.59;;;3.80;100.00
56944;BME280;42848;42.524;12.052;2023-01-25T06:06:11;97085.59;;;3.77;100.00
56944;BME280;42848;42.524;12.052;2023-01-25T06:08:37;97089.34;;;3.76;100.00
56944;BME280;42848;42.524;12.052;2023-01-25T06:11:10;97101.41;;;3.73;100.00
56944;BME280;42848;42.524;12.052;2023-01-25T06:13:36;97103.56;;;3.76;100.00
56944;BME280;42848;42.524;12.052;2023-01-25T06:16:02;97087.97;;;3.73;100.00
56944;BME280;42848;42.524;12.052;2023-01-25T06:18:30;97079.13;;;3.78;100.00
56944;BME280;42848;42.524;12.052;2023-01-25T06:20:56;97076.72;;;3.71;100.00
56944;BME280;42848;42.524;12.052;2023-01-25T06:23:23;97064.63;;;3.68;100.00
56944;BME280;42848;42.524;12.052;2023-01-25T06:25:49;97068.91;;;3.64;100.00
56944;BME280;42848;42.524;12.052;2023-01-25T06:28:14;97062.75;;;3.69;100.00
56944;BME280;42848;42.524;12.052;2023-01-25T06:30:40;97067.81;;;3.65;100.00
56944;BME280;42848;42.524;12.052;2023-01-25T06:33:06;97066.75;;;3.61;100.00
56944;BME280;42848;42.524;12.052;2023-01-25T06:35:32;97059.25;;;3.58;100.00
56944;BME280;42848;42.524;12.052;2023-01-25T06:37:59;97066.75;;;3.61;100.00
56944;BME280;42848;42.524;12.052;2023-01-25T06:40:26;97065.69;;;3.62;100.00
56944;BME280;42848;42.524;12.052;2023-01-25T06:42:52;97063.00;;;3.62;100.00
56944;BME280;42848;42.524;12.052;2023-01-25T06:45:18;97064.06;;;3.61;100.00
56944;BME280;42848;42.524;12.052;2023-01-25T06:47:43;97058.44;;;3.63;100.00
56944;BME280;42848;42.524;12.052;2023-01-25T06:50:11;97053.88;;;3.63;100.00
56944;BME280;42848;42.524;12.052;2023-01-25T06:52:37;97051.47;;;3.62;100.00
56944;BME280;42848;42.524;12.052;2023-01-25T06:55:04;97053.63;;;3.60;100.00
56944;BME280;42848;42.524;12.052;2023-01-25T06:57:31;97053.34;;;3.61;100.00
56944;BME280;42848;42.524;12.052;2023-01-25T06:59:57;97054.41;;;3.65;100.00
56944;BME280;42848;42.524;12.052;2023-01-25T07:02:22;97046.34;;;3.65;100.00
56944;BME280;42848;42.524;12.052;2023-01-25T07:04:48;97045.81;;;3.63;100.00
56944;BME280;42848;42.524;12.052;2023-01-25T07:07:14;97046.34;;;3.65;100.00
56944;BME280;42848;42.524;12.052;2023-01-25T07:09:40;97046.66;;;3.69;100.00
56944;BME280;42848;42.524;12.052;2023-01-25T07:12:05;97032.41;;;3.74;100.00
56944;BME280;42848;42.524;12.052;2023-01-25T07:14:31;97043.69;;;3.70;100.00
56944;BME280;42848;42.524;12.052;2023-01-25T07:16:58;97053.88;;;3.74;100.00
56944;BME280;42848;42.524;12.052;2023-01-25T07:19:23;97043.16;;;3.79;100.00
56944;BME280;42848;42.524;12.052;2023-01-25T07:21:49;97045.84;;;3.79;100.00
56944;BME280;42848;42.524;12.052;2023-01-25T07:24:17;97044.75;;;3.80;100.00
56944;BME280;42848;42.524;12.052;2023-01-25T07:26:43;97037.78;;;3.84;100.00
56944;BME280;42848;42.524;12.052;2023-01-25T07:29:12;97032.66;;;3.82;100.00
56944;BME280;42848;42.524;12.052;2023-01-25T07:31:38;97043.13;;;3.84;100.00
56944;BME280;42848;42.524;12.052;2023-01-25T07:34:08;97031.34;;;3.90;100.00
56944;BME280;42848;42.524;12.052;2023-01-25T07:36:35;97038.31;;;3.91;100.00
56944;BME280;42848;42.524;12.052;2023-01-25T07:39:01;97048.00;;;3.87;100.00
56944;BME280;42848;42.524;12.052;2023-01-25T07:41:26;97046.91;;;3.93;100.00
56944;BME280;42848;42.524;12.052;2023-01-25T07:43:53;97049.06;;;3.91;100.00
56944;BME280;42848;42.524;12.052;2023-01-25T07:46:19;97070.03;;;3.94;100.00
56944;BME280;42848;42.524;12.052;2023-01-25T07:48:49;97053.34;;;3.92;100.00
56944;BME280;42848;42.524;12.052;2023-01-25T07:51:17;97055.50;;;3.95;100.00
56944;BME280;42848;42.524;12.052;2023-01-25T07:53:51;97058.72;;;3.97;100.00
56944;BME280;42848;42.524;12.052;2023-01-25T07:56:19;97063.03;;;3.98;100.00
56944;BME280;42848;42.524;12.052;2023-01-25T07:58:45;97050.13;;;4.05;100.00
56944;BME280;42848;42.524;12.052;2023-01-25T08:01:17;97051.22;;;3.99;100.00
56944;BME280;42848;42.524;12.052;2023-01-25T08:03:44;97067.84;;;4.01;100.00
56944;BME280;42848;42.524;12.052;2023-01-25T08:06:11;97061.41;;;4.02;100.00
56944;BME280;42848;42.524;12.052;2023-01-25T08:08:44;97051.75;;;4.06;100.00
56944;BME280;42848;42.524;12.052;2023-01-25T08:11:19;97051.75;;;4.06;100.00
56944;BME280;42848;42.524;12.052;2023-01-25T08:13:46;97055.50;;;4.05;100.00
56944;BME280;42848;42.524;12.052;2023-01-25T08:16:16;97065.16;;;4.11;100.00
56944;BME280;42848;42.524;12.052;2023-01-25T08:18:42;97054.41;;;4.16;100.00
56944;BME280;42848;42.524;12.052;2023-01-25T08:21:08;97050.09;;;4.20;100.00
56944;BME280;42848;42.524;12.052;2023-01-25T08:23:34;97046.38;;;4.21;100.00
56944;BME280;42848;42.524;12.052;2023-01-25T08:26:07;97061.13;;;4.19;100.00
56944;BME280;42848;42.524;12.052;2023-01-25T08:28:33;97045.81;;;4.19;100.00
56944;BME280;42848;42.524;12.052;2023-01-25T08:31:27;97065.44;;;4.25;100.00
56944;BME280;42848;42.524;12.052;2023-01-25T08:33:53;97046.34;;;4.26;100.00
56944;BME280;42848;42.524;12.052;2023-01-25T08:36:20;97046.63;;;4.30;100.00
56944;BME280;42848;42.524;12.052;2023-01-25T08:38:53;97046.06;;;4.33;100.00
56944;BME280;42848;42.524;12.052;2023-01-25T08:41:19;97035.56;;;4.37;100.00
56944;BME280;42848;42.524;12.052;2023-01-25T08:43:46;97044.16;;;4.39;100.00
56944;BME280;42848;42.524;12.052;2023-01-25T08:46:13;97040.91;;;4.47;100.00
56944;BME280;42848;42.524;12.052;2023-01-25T08:48:39;97047.38;;;4.51;100.00
56944;BME280;42848;42.524;12.052;2023-01-25T08:51:10;97044.94;;;4.54;100.00
56944;BME280;42848;42.524;12.052;2023-01-25T08:53:37;97037.69;;;4.55;100.00
56944;BME280;42848;42.524;12.052;2023-01-25T08:56:07;97044.94;;;4.60;100.00
56944;BME280;42848;42.524;12.052;2023-01-25T08:58:35;97040.34;;;4.65;100.00
56944;BME280;42848;42.524;12.052;2023-01-25T09:01:04;97039.81;;;4.63;100.00
56944;BME280;42848;42.524;12.052;2023-01-25T09:03:30;97041.69;;;4.68;100.00
56944;BME280;42848;42.524;12.052;2023-01-25T09:05:56;97040.56;;;4.74;100.00
56944;BME280;42848;42.524;12.052;2023-01-25T09:08:22;97031.13;;;4.81;100.00
56944;BME280;42848;42.524;12.052;2023-01-25T09:10:48;97035.44;;;4.88;100.00
56944;BME280;42848;42.524;12.052;2023-01-25T09:13:13;97026.28;;;4.89;100.00
56944;BME280;42848;42.524;12.052;2023-01-25T09:15:39;97041.03;;;4.96;100.00
56944;BME280;42848;42.524;12.052;2023-01-25T09:18:05;97039.16;;;4.97;100.00
56944;BME280;42848;42.524;12.052;2023-01-25T09:20:31;97031.59;;;5.04;100.00
56944;BME280;42848;42.524;12.052;2023-01-25T09:22:57;97038.00;;;5.13;100.00
56944;BME280;42848;42.524;12.052;2023-01-25T09:25:22;97034.75;;;5.21;100.00
56944;BME280;42848;42.524;12.052;2023-01-25T09:27:49;97026.63;;;5.26;100.00
56944;BME280;42848;42.524;12.052;2023-01-25T09:30:17;97033.53;;;5.37;100.00
56944;BME280;42848;42.524;12.052;2023-01-25T09:32:43;97041.59;;;5.42;100.00
56944;BME280;42848;42.524;12.052;2023-01-25T09:35:09;97041.03;;;5.46;100.00
56944;BME280;42848;42.524;12.052;2023-01-25T09:37:35;97045.06;;;5.48;100.00
56944;BME280;42848;42.524;12.052;2023-01-25T09:40:01;97044.25;;;5.48;100.00
56944;BME280;42848;42.524;12.052;2023-01-25T09:43:02;97048.03;;;5.47;100.00
56944;BME280;42848;42.524;12.052;2023-01-25T09:45:35;97049.13;;;5.46;100.00
56944;BME280;42848;42.524;12.052;2023-01-25T09:48:20;97040.50;;;5.49;100.00
56944;BME280;42848;42.524;12.052;2023-01-25T09:51:17;97038.03;;;5.52;100.00
56944;BME280;42848;42.524;12.052;2023-01-25T09:53:49;97038.00;;;5.57;100.00
56944;BME280;42848;42.524;12.052;2023-01-25T09:56:27;97031.25;;;5.60;100.00
56944;BME280;42848;42.524;12.052;2023-01-25T09:58:59;97026.09;;;5.68;100.00
56944;BME280;42848;42.524;12.052;2023-01-25T10:03:57;97026.47;;;5.91;100.00
56944;BME280;42848;42.524;12.052;2023-01-25T10:06:35;97007.81;;;5.99;100.00
56944;BME280;42848;42.524;12.052;2023-01-25T10:14:42;97015.41;;;6.21;100.00
56944;BME280;42848;42.524;12.052;2023-01-25T10:17:34;97010.19;;;6.30;100.00
56944;BME280;42848;42.524;12.052;2023-01-25T10:22:48;97005.09;;;6.28;100.00
56944;BME280;42848;42.524;12.052;2023-01-25T10:28:18;97009.06;;;6.36;100.00
56944;BME280;42848;42.524;12.052;2023-01-25T10:30:56;97014.06;;;6.48;100.00
56944;BME280;42848;42.524;12.052;2023-01-25T10:33:25;96993.03;;;6.50;100.00
56944;BME280;42848;42.524;12.052;2023-01-25T10:35:54;96997.50;;;6.60;100.00
56944;BME280;42848;42.524;12.052;2023-01-25T10:41:04;96990.44;;;6.64;100.00
56944;BME280;42848;42.524;12.052;2023-01-25T10:43:32;96986.13;;;6.63;100.00
56944;BME280;42848;42.524;12.052;2023-01-25T10:45:58;96980.22;;;6.61;100.00
56944;BME280;42848;42.524;12.052;2023-01-25T10:48:28;96982.94;;;6.61;100.00
56944;BME280;42848;42.524;12.052;2023-01-25T10:50:55;96959.66;;;6.65;100.00
56944;BME280;42848;42.524;12.052;2023-01-25T10:53:36;96963.31;;;6.74;100.00
56944;BME280;42848;42.524;12.052;2023-01-25T10:58:38;96962.63;;;6.87;100.00
56944;BME280;42848;42.524;12.052;2023-01-25T11:01:06;96964.91;;;6.99;100.00
56944;BME280;42848;42.524;12.052;2023-01-25T11:03:35;96953.00;;;7.00;100.00
56944;BME280;42848;42.524;12.052;2023-01-25T11:06:02;96956.06;;;6.93;100.00
56944;BME280;42848;42.524;12.052;2023-01-25T11:08:34;96954.69;;;6.96;100.00
56944;BME280;42848;42.524;12.052;2023-01-25T11:13:40;96950.09;;;6.96;100.00
56944;BME280;42848;42.524;12.052;2023-01-25T11:16:28;96948.41;;;7.00;100.00
56944;BME280;42848;42.524;12.052;2023-01-25T11:18:56;96933.75;;;7.06;100.00
56944;BME280;42848;42.524;12.052;2023-01-25T11:21:24;96934.22;;;7.13;100.00
56944;BME280;42848;42.524;12.052;2023-01-25T11:26:27;96928.72;;;7.00;100.00
56944;BME280;42848;42.524;12.052;2023-01-25T11:29:18;96926.75;;;7.05;100.00
56944;BME280;42848;42.524;12.052;2023-01-25T11:31:48;96920.84;;;7.03;100.00
56944;BME280;42848;42.524;12.052;2023-01-25T11:34:20;96912.16;;;7.06;100.00
56944;BME280;42848;42.524;12.052;2023-01-25T11:48:27;96890.78;;;7.10;100.00
56944;BME280;42848;42.524;12.052;2023-01-25T11:51:03;96898.59;;;7.11;100.00
56944;BME280;42848;42.524;12.052;2023-01-25T12:07:20;96878.13;;;7.43;100.00
56944;BME280;42848;42.524;12.052;2023-01-25T12:12:37;96863.66;;;7.66;100.00
56944;BME280;42848;42.524;12.052;2023-01-25T12:28:41;96823.25;;;7.61;100.00
56944;BME280;42848;42.524;12.052;2023-01-25T12:31:12;96813.84;;;7.73;100.00
56944;BME280;42848;42.524;12.052;2023-01-25T12:36:46;96802.72;;;7.74;100.00
56944;BME280;42848;42.524;12.052;2023-01-25T12:39:18;96793.81;;;7.74;100.00
56944;BME280;42848;42.524;12.052;2023-01-25T12:44:29;96793.81;;;7.74;100.00
56944;BME280;42848;42.524;12.052;2023-01-25T12:47:32;96786.72;;;7.78;100.00
56944;BME280;42848;42.524;12.052;2023-01-25T12:50:17;96793.31;;;7.85;100.00
56944;BME280;42848;42.524;12.052;2023-01-25T12:52:49;96802.94;;;7.78;100.00
56944;BME280;42848;42.524;12.052;2023-01-25T12:55:17;96787.81;;;7.77;100.00
56944;BME280;42848;42.524;12.052;2023-01-25T13:00:17;96781.72;;;7.71;100.00
56944;BME280;42848;42.524;12.052;2023-01-25T13:03:06;96793.31;;;7.72;100.00
56944;BME280;42848;42.524;12.052;2023-01-25T13:06:07;96786.72;;;7.78;100.00
56944;BME280;42848;42.524;12.052;2023-01-25T13:08:46;96791.13;;;7.74;100.00
56944;BME280;42848;42.524;12.052;2023-01-25T13:21:58;96765.38;;;7.76;100.00
56944;BME280;42848;42.524;12.052;2023-01-25T13:24:25;96762.50;;;7.73;100.00
56944;BME280;42848;42.524;12.052;2023-01-25T13:32:01;96738.09;;;7.78;100.00
56944;BME280;42848;42.524;12.052;2023-01-25T13:37:22;96737.25;;;7.77;100.00
56944;BME280;42848;42.524;12.052;2023-01-25T13:39:57;96758.41;;;7.89;100.00
56944;BME280;42848;42.524;12.052;2023-01-25T13:42:26;96745.47;;;7.86;100.00
56944;BME280;42848;42.524;12.052;2023-01-25T13:45:03;96750.88;;;7.86;100.00
56944;BME280;42848;42.524;12.052;2023-01-25T13:47:35;96757.91;;;7.87;100.00
56944;BME280;42848;42.524;12.052;2023-01-25T13:50:26;96755.69;;;7.89;100.00
56944;BME280;42848;42.524;12.052;2023-01-25T13:53:00;96756.28;;;7.86;100.00
56944;BME280;42848;42.524;12.052;2023-01-25T13:55:28;96769.91;;;7.81;100.00
56944;BME280;42848;42.524;12.052;2023-01-25T14:01:16;96752.06;;;7.93;100.00
56944;BME280;42848;42.524;12.052;2023-01-25T14:03:57;96753.00;;;7.89;100.00
56944;BME280;42848;42.524;12.052;2023-01-25T14:06:28;96745.16;;;8.01;100.00
56944;BME280;42848;42.524;12.052;2023-01-25T14:08:58;96756.09;;;7.96;100.00
56944;BME280;42848;42.524;12.052;2023-01-25T14:11:29;96757.25;;;8.04;100.00
56944;BME280;42848;42.524;12.052;2023-01-25T14:14:01;96748.28;;;7.81;100.00
56944;BME280;42848;42.524;12.052;2023-01-25T14:16:29;96764.09;;;7.74;100.00
56944;BME280;42848;42.524;12.052;2023-01-25T14:19:15;96750.72;;;7.68;100.00
56944;BME280;42848;42.524;12.052;2023-01-25T14:21:43;96741.88;;;7.77;100.00
56944;BME280;42848;42.524;12.052;2023-01-25T14:24:09;96743.50;;;7.78;100.00
56944;BME280;42848;42.524;12.052;2023-01-25T14:26:37;96717.84;;;7.89;100.00
56944;BME280;42848;42.524;12.052;2023-01-25T14:29:16;96714.84;;;7.77;100.00
56944;BME280;42848;42.524;12.052;2023-01-25T14:31:46;96717.19;;;7.69;100.00
56944;BME280;42848;42.524;12.052;2023-01-25T14:34:17;96714.88;;;7.63;100.00
56944;BME280;42848;42.524;12.052;2023-01-25T14:36:44;96731.97;;;7.58;100.00
56944;BME280;42848;42.524;12.052;2023-01-25T14:39:26;96723.88;;;7.58;100.00
56944;BME280;42848;42.524;12.052;2023-01-25T14:41:52;96744.41;;;7.59;100.00
56944;BME280;42848;42.524;12.052;2023-01-25T14:44:19;96737.66;;;7.57;100.00
56944;BME280;42848;42.524;12.052;2023-01-25T14:46:46;96742.28;;;7.56;100.00
56944;BME280;42848;42.524;12.052;2023-01-25T14:51:54;96739.78;;;7.46;100.00
56944;BME280;42848;42.524;12.052;2023-01-25T14:54:25;96732.38;;;7.52;100.00